createdAt,value
2018-11-12T00:00:03.377Z,1006.39
2018-11-12T00:00:29.532Z,1006.37
2018-11-12T00:00:55.689Z,1006.38
2018-11-12T00:01:21.868Z,1006.35
2018-11-12T00:01:48.002Z,1006.36
2018-11-12T00:02:14.136Z,1006.35
2018-11-12T00:02:40.262Z,1006.42
2018-11-12T00:03:06.394Z,1006.4
2018-11-12T00:03:32.526Z,1006.4
2018-11-12T00:03:58.658Z,1006.44
2018-11-12T00:04:24.813Z,1006.44
2018-11-12T00:04:50.973Z,1006.45
2018-11-12T00:05:17.106Z,1006.41
2018-11-12T00:05:43.227Z,1006.48
2018-11-12T00:06:09.369Z,1006.45
2018-11-12T00:06:35.515Z,1006.48
2018-11-12T00:07:01.647Z,1006.44
2018-11-12T00:07:27.784Z,1006.41
2018-11-12T00:07:53.940Z,1006.43
2018-11-12T00:08:20.122Z,1006.43
2018-11-12T00:08:46.281Z,1006.37
2018-11-12T00:09:12.420Z,1006.39
2018-11-12T00:09:38.545Z,1006.42
2018-11-12T00:10:04.676Z,1006.43
2018-11-12T00:10:30.810Z,1006.45
2018-11-12T00:10:56.942Z,1006.44
2018-11-12T00:11:23.079Z,1006.4
2018-11-12T00:11:49.243Z,1006.47
2018-11-12T00:12:15.393Z,1006.44
2018-11-12T00:12:41.529Z,1006.35
2018-11-12T00:13:07.660Z,1006.37
2018-11-12T00:13:33.799Z,1006.31
2018-11-12T00:13:59.929Z,1006.29
2018-11-12T00:14:26.057Z,1006.28
2018-11-12T00:14:52.220Z,1006.27
2018-11-12T00:15:18.351Z,1006.27
2018-11-12T00:15:44.483Z,1006.27
2018-11-12T00:16:10.614Z,1006.27
2018-11-12T00:16:36.751Z,1006.26
2018-11-12T00:17:02.880Z,1006.31
2018-11-12T00:17:29.015Z,1006.34
2018-11-12T00:17:55.171Z,1006.32
2018-11-12T00:18:21.309Z,1006.3
2018-11-12T00:18:47.437Z,1006.32
2018-11-12T00:19:13.580Z,1006.32
2018-11-12T00:19:39.707Z,1006.27
2018-11-12T00:20:05.837Z,1006.3
2018-11-12T00:20:31.969Z,1006.33
2018-11-12T00:20:58.144Z,1006.35
2018-11-12T00:21:24.280Z,1006.39
2018-11-12T00:21:50.450Z,1006.33
2018-11-12T00:22:16.573Z,1006.32
2018-11-12T00:22:42.703Z,1006.4
2018-11-12T00:23:08.861Z,1006.43
2018-11-12T00:23:34.996Z,1006.38
2018-11-12T00:24:01.123Z,1006.38
2018-11-12T00:24:27.302Z,1006.39
2018-11-12T00:24:53.451Z,1006.39
2018-11-12T00:25:19.609Z,1006.4
2018-11-12T00:25:45.743Z,1006.35
2018-11-12T00:26:11.877Z,1006.34
2018-11-12T00:26:38.004Z,1006.32
2018-11-12T00:27:04.144Z,1006.31
2018-11-12T00:27:30.273Z,1006.28
2018-11-12T00:27:56.411Z,1006.25
2018-11-12T00:28:22.566Z,1006.21
2018-11-12T00:28:48.699Z,1006.2
2018-11-12T00:29:14.829Z,1006.2
2018-11-12T00:29:40.984Z,1006.18
2018-11-12T00:30:07.120Z,1006.2
2018-11-12T00:30:33.278Z,1006.15
2018-11-12T00:30:59.456Z,1006.2
2018-11-12T00:31:25.591Z,1006.23
2018-11-12T00:31:51.731Z,1006.2
2018-11-12T00:32:17.889Z,1006.2
2018-11-12T00:32:44.027Z,1006.21
2018-11-12T00:33:10.180Z,1006.19
2018-11-12T00:33:36.332Z,1006.21
2018-11-12T00:34:02.478Z,1006.22
2018-11-12T00:34:28.614Z,1006.25
2018-11-12T00:34:54.741Z,1006.28
2018-11-12T00:35:20.897Z,1006.22
2018-11-12T00:35:47.052Z,1006.25
2018-11-12T00:36:13.167Z,1006.22
2018-11-12T00:36:39.295Z,1006.29
2018-11-12T00:37:05.428Z,1006.23
2018-11-12T00:37:31.565Z,1006.31
2018-11-12T00:37:57.715Z,1006.31
2018-11-12T00:38:23.849Z,1006.32
2018-11-12T00:38:49.980Z,1006.33
2018-11-12T00:39:16.115Z,1006.36
2018-11-12T00:39:42.247Z,1006.37
2018-11-12T00:40:08.379Z,1006.38
2018-11-12T00:40:34.510Z,1006.41
2018-11-12T00:41:00.650Z,1006.39
2018-11-12T00:41:26.776Z,1006.45
2018-11-12T00:41:52.913Z,1006.49
2018-11-12T00:42:19.065Z,1006.51
2018-11-12T00:42:45.200Z,1006.54
2018-11-12T00:43:11.346Z,1006.58
2018-11-12T00:43:37.478Z,1006.59
2018-11-12T00:44:03.610Z,1006.64
2018-11-12T00:44:29.750Z,1006.66
2018-11-12T00:44:55.872Z,1006.67
2018-11-12T00:45:22.009Z,1006.68
2018-11-12T00:45:48.163Z,1006.68
2018-11-12T00:46:14.335Z,1006.66
2018-11-12T00:46:40.462Z,1006.61
2018-11-12T00:47:06.605Z,1006.61
2018-11-12T00:47:32.737Z,1006.63
2018-11-12T00:47:58.867Z,1006.62
2018-11-12T00:48:25.022Z,1006.67
2018-11-12T00:48:51.151Z,1006.62
2018-11-12T00:49:17.291Z,1006.6
2018-11-12T00:49:43.422Z,1006.66
2018-11-12T00:50:09.551Z,1006.61
2018-11-12T00:50:35.685Z,1006.64
2018-11-12T00:51:01.817Z,1006.63
2018-11-12T00:51:27.937Z,1006.6
2018-11-12T00:51:54.074Z,1006.64
2018-11-12T00:52:20.201Z,1006.58
2018-11-12T00:52:46.361Z,1006.64
2018-11-12T00:53:12.489Z,1006.62
2018-11-12T00:53:38.653Z,1006.66
2018-11-12T00:54:04.782Z,1006.66
2018-11-12T00:54:30.930Z,1006.68
2018-11-12T00:54:57.070Z,1006.7
2018-11-12T00:55:23.204Z,1006.69
2018-11-12T00:55:49.338Z,1006.73
2018-11-12T00:56:15.499Z,1006.68
2018-11-12T00:56:41.632Z,1006.73
2018-11-12T00:57:07.769Z,1006.73
2018-11-12T00:57:33.953Z,1006.74
2018-11-12T00:58:00.102Z,1006.73
2018-11-12T00:58:26.233Z,1006.77
2018-11-12T00:58:52.369Z,1006.79
2018-11-12T00:59:18.503Z,1006.75
2018-11-12T00:59:44.640Z,1006.84
2018-11-12T01:00:10.766Z,1006.86
2018-11-12T01:00:36.895Z,1006.88
2018-11-12T01:01:03.036Z,1006.9
2018-11-12T01:01:29.267Z,1006.95
2018-11-12T01:01:55.401Z,1006.97
2018-11-12T01:02:21.556Z,1006.98
2018-11-12T01:02:47.695Z,1006.95
2018-11-12T01:03:13.833Z,1006.96
2018-11-12T01:03:39.962Z,1006.95
2018-11-12T01:04:06.161Z,1006.95
2018-11-12T01:04:32.303Z,1006.97
2018-11-12T01:04:58.441Z,1006.91
2018-11-12T01:05:24.565Z,1006.93
2018-11-12T01:05:50.698Z,1006.87
2018-11-12T01:06:16.848Z,1006.89
2018-11-12T01:06:42.988Z,1006.84
2018-11-12T01:07:09.118Z,1006.77
2018-11-12T01:07:35.255Z,1006.84
2018-11-12T01:08:01.418Z,1006.85
2018-11-12T01:08:27.539Z,1006.82
2018-11-12T01:08:53.677Z,1006.83
2018-11-12T01:09:19.811Z,1006.82
2018-11-12T01:09:45.948Z,1006.85
2018-11-12T01:10:12.077Z,1006.85
2018-11-12T01:10:38.213Z,1006.91
2018-11-12T01:11:04.341Z,1006.9
2018-11-12T01:11:30.476Z,1006.91
2018-11-12T01:11:56.613Z,1006.91
2018-11-12T01:12:22.736Z,1006.84
2018-11-12T01:12:48.873Z,1006.9
2018-11-12T01:13:14.997Z,1006.87
2018-11-12T01:13:41.130Z,1006.86
2018-11-12T01:14:07.289Z,1006.86
2018-11-12T01:14:33.418Z,1006.87
2018-11-12T01:14:59.558Z,1006.88
2018-11-12T01:15:25.708Z,1006.94
2018-11-12T01:15:51.842Z,1006.9
2018-11-12T01:16:18.087Z,1006.91
2018-11-12T01:16:44.175Z,1006.96
2018-11-12T01:17:10.309Z,1006.99
2018-11-12T01:17:36.439Z,1007.03
2018-11-12T01:18:02.590Z,1007.06
2018-11-12T01:18:28.715Z,1007.02
2018-11-12T01:18:54.850Z,1007.03
2018-11-12T01:19:20.982Z,1007.05
2018-11-12T01:19:47.119Z,1007.06
2018-11-12T01:20:13.276Z,1007.12
2018-11-12T01:20:39.437Z,1007.1
2018-11-12T01:21:05.562Z,1007.1
2018-11-12T01:21:31.699Z,1007.09
2018-11-12T01:21:57.829Z,1007.08
2018-11-12T01:22:23.958Z,1007.08
2018-11-12T01:22:50.094Z,1007.07
2018-11-12T01:23:16.280Z,1007.08
2018-11-12T01:23:42.418Z,1007.08
2018-11-12T01:24:08.545Z,1007.08
2018-11-12T01:24:34.677Z,1007.04
2018-11-12T01:25:00.818Z,1006.99
2018-11-12T01:25:26.990Z,1007.02
2018-11-12T01:25:53.122Z,1006.98
2018-11-12T01:26:19.260Z,1007.03
2018-11-12T01:26:45.412Z,1007
2018-11-12T01:27:11.576Z,1007
2018-11-12T01:27:37.711Z,1006.93
2018-11-12T01:28:03.874Z,1006.97
2018-11-12T01:28:30.009Z,1007.01
2018-11-12T01:28:56.137Z,1006.96
2018-11-12T01:29:22.293Z,1006.97
2018-11-12T01:29:48.450Z,1006.9
2018-11-12T01:30:14.606Z,1006.95
2018-11-12T01:30:40.740Z,1006.91
2018-11-12T01:31:06.866Z,1006.99
2018-11-12T01:31:33.030Z,1006.95
2018-11-12T01:31:59.164Z,1006.91
2018-11-12T01:32:25.303Z,1006.96
2018-11-12T01:32:51.438Z,1006.96
2018-11-12T01:33:17.567Z,1007
2018-11-12T01:33:43.705Z,1006.94
2018-11-12T01:34:09.856Z,1006.95
2018-11-12T01:34:36.028Z,1006.98
2018-11-12T01:35:02.189Z,1006.96
2018-11-12T01:35:28.321Z,1006.99
2018-11-12T01:35:54.449Z,1007.03
2018-11-12T01:36:20.585Z,1007
2018-11-12T01:36:46.742Z,1007
2018-11-12T01:37:12.878Z,1007.03
2018-11-12T01:37:39.035Z,1007.03
2018-11-12T01:38:05.167Z,1007.03
2018-11-12T01:38:31.292Z,1007.05
2018-11-12T01:38:57.427Z,1007.02
2018-11-12T01:39:23.584Z,1007.02
2018-11-12T01:39:49.711Z,1007.05
2018-11-12T01:40:15.849Z,1007.02
2018-11-12T01:40:41.986Z,1007
2018-11-12T01:41:08.118Z,1007.02
2018-11-12T01:41:34.249Z,1007.01
2018-11-12T01:42:00.453Z,1006.99
2018-11-12T01:42:26.526Z,1007.01
2018-11-12T01:42:52.657Z,1007.01
2018-11-12T01:43:18.794Z,1007.01
2018-11-12T01:43:44.945Z,1007.07
2018-11-12T01:44:11.123Z,1007.02
2018-11-12T01:44:37.257Z,1007.03
2018-11-12T01:45:03.419Z,1007
2018-11-12T01:45:29.597Z,1007
2018-11-12T01:45:55.730Z,1006.99
2018-11-12T01:46:21.862Z,1006.95
2018-11-12T01:46:47.992Z,1006.97
2018-11-12T01:47:14.123Z,1006.96
2018-11-12T01:47:40.254Z,1006.95
2018-11-12T01:48:06.414Z,1006.89
2018-11-12T01:48:32.543Z,1006.89
2018-11-12T01:48:58.694Z,1006.9
2018-11-12T01:49:24.850Z,1006.84
2018-11-12T01:49:50.985Z,1006.8
2018-11-12T01:50:17.118Z,1006.77
2018-11-12T01:50:43.242Z,1006.78
2018-11-12T01:51:09.369Z,1006.78
2018-11-12T01:51:35.506Z,1006.74
2018-11-12T01:52:01.646Z,1006.72
2018-11-12T01:52:27.773Z,1006.75
2018-11-12T01:52:53.903Z,1006.76
2018-11-12T01:53:20.043Z,1006.76
2018-11-12T01:53:46.175Z,1006.8
2018-11-12T01:54:12.311Z,1006.83
2018-11-12T01:54:38.437Z,1006.86
2018-11-12T01:55:04.567Z,1006.87
2018-11-12T01:55:30.700Z,1006.87
2018-11-12T01:55:56.835Z,1006.84
2018-11-12T01:56:22.969Z,1006.9
2018-11-12T01:56:49.126Z,1006.93
2018-11-12T01:57:15.254Z,1006.93
2018-11-12T01:57:41.393Z,1006.89
2018-11-12T01:58:07.535Z,1006.87
2018-11-12T01:58:33.687Z,1006.84
2018-11-12T01:58:59.816Z,1006.85
2018-11-12T01:59:25.956Z,1006.86
2018-11-12T01:59:52.103Z,1006.83
2018-11-12T02:00:18.298Z,1006.82
2018-11-12T02:00:44.424Z,1006.82
2018-11-12T02:01:10.608Z,1006.82
2018-11-12T02:01:36.797Z,1006.8
2018-11-12T02:02:02.888Z,1006.84
2018-11-12T02:02:29.017Z,1006.83
2018-11-12T02:02:55.179Z,1006.88
2018-11-12T02:03:21.312Z,1006.89
2018-11-12T02:03:47.475Z,1006.89
2018-11-12T02:04:13.610Z,1006.92
2018-11-12T02:04:39.769Z,1006.94
2018-11-12T02:05:05.926Z,1006.96
2018-11-12T02:05:32.074Z,1006.95
2018-11-12T02:05:58.208Z,1006.92
2018-11-12T02:06:24.335Z,1006.94
2018-11-12T02:06:50.512Z,1006.92
2018-11-12T02:07:16.639Z,1006.96
2018-11-12T02:07:42.766Z,1006.97
2018-11-12T02:08:08.903Z,1007
2018-11-12T02:08:35.071Z,1006.99
2018-11-12T02:09:01.281Z,1006.99
2018-11-12T02:09:27.340Z,1006.94
2018-11-12T02:09:53.474Z,1006.97
2018-11-12T02:10:19.631Z,1006.95
2018-11-12T02:10:45.763Z,1006.97
2018-11-12T02:11:11.939Z,1006.92
2018-11-12T02:11:38.075Z,1006.91
2018-11-12T02:12:04.201Z,1006.88
2018-11-12T02:12:30.337Z,1006.89
2018-11-12T02:12:56.475Z,1006.91
2018-11-12T02:13:22.607Z,1006.89
2018-11-12T02:13:48.737Z,1006.92
2018-11-12T02:14:14.872Z,1006.91
2018-11-12T02:14:41.100Z,1006.89
2018-11-12T02:15:07.178Z,1006.9
2018-11-12T02:15:33.300Z,1006.91
2018-11-12T02:15:59.436Z,1006.91
2018-11-12T02:16:25.595Z,1006.93
2018-11-12T02:16:51.727Z,1006.88
2018-11-12T02:17:17.859Z,1006.9
2018-11-12T02:17:44.002Z,1006.91
2018-11-12T02:18:10.132Z,1006.85
2018-11-12T02:18:36.288Z,1006.9
2018-11-12T02:19:02.420Z,1006.85
2018-11-12T02:19:28.556Z,1006.85
2018-11-12T02:19:54.720Z,1006.84
2018-11-12T02:20:20.857Z,1006.78
2018-11-12T02:20:46.977Z,1006.73
2018-11-12T02:21:13.108Z,1006.73
2018-11-12T02:21:39.264Z,1006.7
2018-11-12T02:22:05.363Z,1006.69
2018-11-12T02:22:31.533Z,1006.7
2018-11-12T02:22:57.655Z,1006.7
2018-11-12T02:23:23.784Z,1006.64
2018-11-12T02:23:49.919Z,1006.67
2018-11-12T02:24:16.079Z,1006.7
2018-11-12T02:24:42.204Z,1006.68
2018-11-12T02:25:08.337Z,1006.71
2018-11-12T02:25:34.496Z,1006.67
2018-11-12T02:26:00.638Z,1006.66
2018-11-12T02:26:26.766Z,1006.65
2018-11-12T02:26:52.916Z,1006.67
2018-11-12T02:27:19.051Z,1006.68
2018-11-12T02:27:45.204Z,1006.72
2018-11-12T02:28:11.345Z,1006.7
2018-11-12T02:28:37.495Z,1006.7
2018-11-12T02:29:03.642Z,1006.69
2018-11-12T02:29:29.823Z,1006.66
2018-11-12T02:29:55.905Z,1006.66
2018-11-12T02:30:22.034Z,1006.7
2018-11-12T02:30:48.171Z,1006.74
2018-11-12T02:31:14.302Z,1006.74
2018-11-12T02:31:40.440Z,1006.7
2018-11-12T02:32:06.577Z,1006.72
2018-11-12T02:32:32.731Z,1006.66
2018-11-12T02:32:58.956Z,1006.68
2018-11-12T02:33:25.174Z,1006.68
2018-11-12T02:33:51.178Z,1006.7
2018-11-12T02:34:17.335Z,1006.66
2018-11-12T02:34:43.472Z,1006.69
2018-11-12T02:35:09.606Z,1006.63
2018-11-12T02:35:35.766Z,1006.69
2018-11-12T02:36:01.916Z,1006.67
2018-11-12T02:36:28.054Z,1006.72
2018-11-12T02:36:54.183Z,1006.68
2018-11-12T02:37:20.340Z,1006.73
2018-11-12T02:37:46.498Z,1006.68
2018-11-12T02:38:12.634Z,1006.7
2018-11-12T02:38:38.768Z,1006.72
2018-11-12T02:39:04.915Z,1006.73
2018-11-12T02:39:31.052Z,1006.72
2018-11-12T02:39:57.229Z,1006.71
2018-11-12T02:40:23.373Z,1006.67
2018-11-12T02:40:49.528Z,1006.67
2018-11-12T02:41:15.662Z,1006.7
2018-11-12T02:41:41.800Z,1006.69
2018-11-12T02:42:07.952Z,1006.66
2018-11-12T02:42:34.084Z,1006.69
2018-11-12T02:43:00.223Z,1006.67
2018-11-12T02:43:26.381Z,1006.59
2018-11-12T02:43:52.515Z,1006.61
2018-11-12T02:44:18.666Z,1006.58
2018-11-12T02:44:44.826Z,1006.53
2018-11-12T02:45:10.965Z,1006.57
2018-11-12T02:45:37.090Z,1006.53
2018-11-12T02:46:03.239Z,1006.53
2018-11-12T02:46:29.362Z,1006.5
2018-11-12T02:46:55.498Z,1006.45
2018-11-12T02:47:21.624Z,1006.47
2018-11-12T02:47:47.759Z,1006.46
2018-11-12T02:48:13.894Z,1006.46
2018-11-12T02:48:40.046Z,1006.45
2018-11-12T02:49:06.200Z,1006.47
2018-11-12T02:49:32.325Z,1006.45
2018-11-12T02:49:58.458Z,1006.47
2018-11-12T02:50:24.624Z,1006.48
2018-11-12T02:50:50.782Z,1006.44
2018-11-12T02:51:16.934Z,1006.47
2018-11-12T02:51:43.094Z,1006.46
2018-11-12T02:52:09.252Z,1006.53
2018-11-12T02:52:35.399Z,1006.57
2018-11-12T02:53:01.519Z,1006.55
2018-11-12T02:53:27.674Z,1006.6
2018-11-12T02:53:53.827Z,1006.6
2018-11-12T02:54:19.993Z,1006.64
2018-11-12T02:54:46.134Z,1006.67
2018-11-12T02:55:12.289Z,1006.69
2018-11-12T02:55:38.471Z,1006.69
2018-11-12T02:56:04.621Z,1006.64
2018-11-12T02:56:30.772Z,1006.61
2018-11-12T02:56:56.927Z,1006.59
2018-11-12T02:57:23.071Z,1006.58
2018-11-12T02:57:49.195Z,1006.58
2018-11-12T02:58:15.354Z,1006.58
2018-11-12T02:58:41.511Z,1006.6
2018-11-12T02:59:07.665Z,1006.56
2018-11-12T02:59:33.802Z,1006.55
2018-11-12T02:59:59.935Z,1006.54
2018-11-12T03:00:26.091Z,1006.58
2018-11-12T03:00:52.217Z,1006.54
2018-11-12T03:01:18.398Z,1006.52
2018-11-12T03:01:44.504Z,1006.54
2018-11-12T03:02:10.639Z,1006.54
2018-11-12T03:02:36.768Z,1006.5
2018-11-12T03:03:02.927Z,1006.51
2018-11-12T03:03:29.057Z,1006.5
2018-11-12T03:03:55.212Z,1006.5
2018-11-12T03:04:21.364Z,1006.48
2018-11-12T03:04:47.497Z,1006.5
2018-11-12T03:05:13.655Z,1006.5
2018-11-12T03:05:39.830Z,1006.45
2018-11-12T03:06:05.998Z,1006.49
2018-11-12T03:06:32.176Z,1006.46
2018-11-12T03:06:58.332Z,1006.46
2018-11-12T03:07:24.621Z,1006.47
2018-11-12T03:07:50.664Z,1006.46
2018-11-12T03:08:16.816Z,1006.44
2018-11-12T03:08:42.962Z,1006.42
2018-11-12T03:09:09.121Z,1006.42
2018-11-12T03:09:35.274Z,1006.4
2018-11-12T03:10:01.414Z,1006.37
2018-11-12T03:10:27.541Z,1006.4
2018-11-12T03:10:53.679Z,1006.41
2018-11-12T03:11:19.837Z,1006.41
2018-11-12T03:11:46.000Z,1006.38
2018-11-12T03:12:12.148Z,1006.37
2018-11-12T03:12:38.283Z,1006.32
2018-11-12T03:13:04.435Z,1006.3
2018-11-12T03:13:30.600Z,1006.27
2018-11-12T03:13:56.726Z,1006.26
2018-11-12T03:14:22.880Z,1006.25
2018-11-12T03:14:49.014Z,1006.26
2018-11-12T03:15:15.168Z,1006.23
2018-11-12T03:15:41.317Z,1006.28
2018-11-12T03:16:07.477Z,1006.28
2018-11-12T03:16:33.638Z,1006.3
2018-11-12T03:16:59.775Z,1006.28
2018-11-12T03:17:25.929Z,1006.28
2018-11-12T03:17:52.065Z,1006.29
2018-11-12T03:18:18.221Z,1006.3
2018-11-12T03:18:44.351Z,1006.33
2018-11-12T03:19:10.522Z,1006.33
2018-11-12T03:19:36.658Z,1006.32
2018-11-12T03:20:02.817Z,1006.31
2018-11-12T03:20:28.949Z,1006.37
2018-11-12T03:20:55.117Z,1006.35
2018-11-12T03:21:21.268Z,1006.33
2018-11-12T03:21:47.448Z,1006.34
2018-11-12T03:22:13.608Z,1006.35
2018-11-12T03:22:39.746Z,1006.27
2018-11-12T03:23:05.884Z,1006.32
2018-11-12T03:23:32.032Z,1006.31
2018-11-12T03:23:58.164Z,1006.32
2018-11-12T03:24:24.298Z,1006.33
2018-11-12T03:24:50.451Z,1006.34
2018-11-12T03:25:16.617Z,1006.32
2018-11-12T03:25:42.764Z,1006.36
2018-11-12T03:26:08.918Z,1006.39
2018-11-12T03:26:35.049Z,1006.37
2018-11-12T03:27:01.190Z,1006.35
2018-11-12T03:27:27.326Z,1006.35
2018-11-12T03:27:53.578Z,1006.36
2018-11-12T03:28:19.605Z,1006.37
2018-11-12T03:28:45.756Z,1006.36
2018-11-12T03:29:11.887Z,1006.37
2018-11-12T03:29:38.018Z,1006.38
2018-11-12T03:30:04.154Z,1006.37
2018-11-12T03:30:30.362Z,1006.35
2018-11-12T03:30:56.539Z,1006.38
2018-11-12T03:31:22.716Z,1006.42
2018-11-12T03:31:48.883Z,1006.4
2018-11-12T03:32:15.017Z,1006.42
2018-11-12T03:32:41.207Z,1006.42
2018-11-12T03:33:07.363Z,1006.37
2018-11-12T03:33:33.499Z,1006.41
2018-11-12T03:33:59.636Z,1006.43
2018-11-12T03:34:25.767Z,1006.42
2018-11-12T03:34:51.924Z,1006.48
2018-11-12T03:35:18.094Z,1006.49
2018-11-12T03:35:44.253Z,1006.51
2018-11-12T03:36:10.413Z,1006.51
2018-11-12T03:36:36.549Z,1006.53
2018-11-12T03:37:02.678Z,1006.51
2018-11-12T03:37:28.836Z,1006.54
2018-11-12T03:37:54.967Z,1006.56
2018-11-12T03:38:21.102Z,1006.61
2018-11-12T03:38:47.277Z,1006.6
2018-11-12T03:39:13.406Z,1006.59
2018-11-12T03:39:39.551Z,1006.57
2018-11-12T03:40:05.698Z,1006.61
2018-11-12T03:40:31.877Z,1006.56
2018-11-12T03:40:58.082Z,1006.59
2018-11-12T03:41:24.233Z,1006.62
2018-11-12T03:41:50.393Z,1006.63
2018-11-12T03:42:16.519Z,1006.65
2018-11-12T03:42:42.656Z,1006.66
2018-11-12T03:43:08.812Z,1006.69
2018-11-12T03:43:34.967Z,1006.74
2018-11-12T03:44:01.100Z,1006.75
2018-11-12T03:44:27.285Z,1006.73
2018-11-12T03:44:53.421Z,1006.81
2018-11-12T03:45:19.577Z,1006.81
2018-11-12T03:45:45.733Z,1006.84
2018-11-12T03:46:11.865Z,1006.86
2018-11-12T03:46:38.024Z,1006.85
2018-11-12T03:47:04.187Z,1006.87
2018-11-12T03:47:30.343Z,1006.84
2018-11-12T03:47:56.471Z,1006.84
2018-11-12T03:48:22.603Z,1006.82
2018-11-12T03:48:48.740Z,1006.84
2018-11-12T03:49:14.868Z,1006.82
2018-11-12T03:49:41.005Z,1006.84
2018-11-12T03:50:07.137Z,1006.84
2018-11-12T03:50:33.271Z,1006.85
2018-11-12T03:50:59.408Z,1006.82
2018-11-12T03:51:25.542Z,1006.78
2018-11-12T03:51:51.666Z,1006.79
2018-11-12T03:52:17.832Z,1006.75
2018-11-12T03:52:43.967Z,1006.76
2018-11-12T03:53:10.125Z,1006.78
2018-11-12T03:53:36.264Z,1006.74
2018-11-12T03:54:02.421Z,1006.74
2018-11-12T03:54:28.554Z,1006.78
2018-11-12T03:54:54.683Z,1006.82
2018-11-12T03:55:20.820Z,1006.8
2018-11-12T03:55:46.971Z,1006.81
2018-11-12T03:56:13.098Z,1006.8
2018-11-12T03:56:39.228Z,1006.82
2018-11-12T03:57:05.382Z,1006.82
2018-11-12T03:57:31.549Z,1006.83
2018-11-12T03:57:57.753Z,1006.84
2018-11-12T03:58:23.833Z,1006.88
2018-11-12T03:58:49.997Z,1006.86
2018-11-12T03:59:16.150Z,1006.82
2018-11-12T03:59:42.282Z,1006.84
2018-11-12T04:00:08.497Z,1006.93
2018-11-12T04:00:34.583Z,1006.91
2018-11-12T04:01:00.743Z,1006.91
2018-11-12T04:01:26.893Z,1006.99
2018-11-12T04:01:53.022Z,1006.94
2018-11-12T04:02:19.151Z,1007.07
2018-11-12T04:02:45.336Z,1007.06
2018-11-12T04:03:11.483Z,1007.1
2018-11-12T04:03:37.617Z,1007.07
2018-11-12T04:04:03.792Z,1007.08
2018-11-12T04:04:29.921Z,1007.08
2018-11-12T04:04:56.050Z,1007.12
2018-11-12T04:05:22.210Z,1007.11
2018-11-12T04:05:48.381Z,1007.11
2018-11-12T04:06:14.520Z,1007.12
2018-11-12T04:06:40.670Z,1007.17
2018-11-12T04:07:06.855Z,1007.15
2018-11-12T04:07:33.012Z,1007.19
2018-11-12T04:07:59.139Z,1007.18
2018-11-12T04:08:25.297Z,1007.16
2018-11-12T04:08:51.463Z,1007.15
2018-11-12T04:09:17.593Z,1007.16
2018-11-12T04:09:43.721Z,1007.14
2018-11-12T04:10:09.856Z,1007.15
2018-11-12T04:10:36.033Z,1007.16
2018-11-12T04:11:02.192Z,1007.12
2018-11-12T04:11:28.345Z,1007.15
2018-11-12T04:11:54.480Z,1007.12
2018-11-12T04:12:20.616Z,1007.14
2018-11-12T04:12:46.755Z,1007.15
2018-11-12T04:13:12.938Z,1007.17
2018-11-12T04:13:39.102Z,1007.13
2018-11-12T04:14:05.265Z,1007.14
2018-11-12T04:14:31.398Z,1007.13
2018-11-12T04:14:57.550Z,1007.11
2018-11-12T04:15:23.702Z,1007.16
2018-11-12T04:15:49.846Z,1007.13
2018-11-12T04:16:15.973Z,1007.15
2018-11-12T04:16:42.126Z,1007.13
2018-11-12T04:17:08.259Z,1007.12
2018-11-12T04:17:34.412Z,1007.06
2018-11-12T04:18:00.591Z,1007.09
2018-11-12T04:18:26.723Z,1007.14
2018-11-12T04:18:52.855Z,1007.13
2018-11-12T04:19:18.991Z,1007.14
2018-11-12T04:19:45.117Z,1007.16
2018-11-12T04:20:11.269Z,1007.15
2018-11-12T04:20:37.398Z,1007.18
2018-11-12T04:21:03.578Z,1007.18
2018-11-12T04:21:29.703Z,1007.17
2018-11-12T04:21:55.842Z,1007.22
2018-11-12T04:22:21.974Z,1007.24
2018-11-12T04:22:48.114Z,1007.24
2018-11-12T04:23:14.296Z,1007.24
2018-11-12T04:23:40.470Z,1007.2
2018-11-12T04:24:06.601Z,1007.22
2018-11-12T04:24:32.750Z,1007.19
2018-11-12T04:24:58.886Z,1007.2
2018-11-12T04:25:25.014Z,1007.18
2018-11-12T04:25:51.144Z,1007.22
2018-11-12T04:26:17.283Z,1007.19
2018-11-12T04:26:43.434Z,1007.24
2018-11-12T04:27:09.571Z,1007.22
2018-11-12T04:27:35.727Z,1007.24
2018-11-12T04:28:01.860Z,1007.21
2018-11-12T04:28:28.009Z,1007.17
2018-11-12T04:28:54.148Z,1007.21
2018-11-12T04:29:20.278Z,1007.18
2018-11-12T04:29:46.413Z,1007.2
2018-11-12T04:30:12.539Z,1007.23
2018-11-12T04:30:38.686Z,1007.21
2018-11-12T04:31:04.816Z,1007.22
2018-11-12T04:31:30.976Z,1007.21
2018-11-12T04:31:57.109Z,1007.2
2018-11-12T04:32:23.262Z,1007.19
2018-11-12T04:32:49.419Z,1007.2
2018-11-12T04:33:15.547Z,1007.19
2018-11-12T04:33:41.701Z,1007.16
2018-11-12T04:34:07.864Z,1007.15
2018-11-12T04:34:34.031Z,1007.15
2018-11-12T04:35:00.160Z,1007.15
2018-11-12T04:35:26.318Z,1007.17
2018-11-12T04:35:52.505Z,1007.15
2018-11-12T04:36:18.661Z,1007.13
2018-11-12T04:36:44.820Z,1007.13
2018-11-12T04:37:10.972Z,1007.13
2018-11-12T04:37:37.097Z,1007.14
2018-11-12T04:38:03.236Z,1007.1
2018-11-12T04:38:29.391Z,1007.11
2018-11-12T04:38:55.532Z,1007.11
2018-11-12T04:39:21.691Z,1007.1
2018-11-12T04:39:47.821Z,1007.08
2018-11-12T04:40:13.959Z,1007.07
2018-11-12T04:40:40.155Z,1007.04
2018-11-12T04:41:06.296Z,1007.04
2018-11-12T04:41:32.467Z,1007.07
2018-11-12T04:41:58.626Z,1007.03
2018-11-12T04:42:24.757Z,1007.07
2018-11-12T04:42:50.896Z,1007.06
2018-11-12T04:43:17.069Z,1007.08
2018-11-12T04:43:43.199Z,1007.07
2018-11-12T04:44:09.380Z,1007.15
2018-11-12T04:44:35.542Z,1007.11
2018-11-12T04:45:01.672Z,1007.13
2018-11-12T04:45:27.831Z,1007.1
2018-11-12T04:45:53.944Z,1007.1
2018-11-12T04:46:20.073Z,1007.13
2018-11-12T04:46:46.234Z,1007.12
2018-11-12T04:47:12.387Z,1007.13
2018-11-12T04:47:38.517Z,1007.07
2018-11-12T04:48:04.672Z,1007.07
2018-11-12T04:48:30.841Z,1007.05
2018-11-12T04:48:57.008Z,1007.08
2018-11-12T04:49:23.152Z,1007.05
2018-11-12T04:49:49.307Z,1007.03
2018-11-12T04:50:15.486Z,1007
2018-11-12T04:50:41.623Z,1007.03
2018-11-12T04:51:07.747Z,1007
2018-11-12T04:51:33.878Z,1007
2018-11-12T04:52:00.039Z,1006.95
2018-11-12T04:52:26.177Z,1006.94
2018-11-12T04:52:52.310Z,1007.02
2018-11-12T04:53:18.483Z,1006.97
2018-11-12T04:53:44.689Z,1006.98
2018-11-12T04:54:10.767Z,1006.97
2018-11-12T04:54:36.899Z,1006.99
2018-11-12T04:55:03.079Z,1007.01
2018-11-12T04:55:29.316Z,1007.02
2018-11-12T04:55:55.327Z,1007.03
2018-11-12T04:56:21.462Z,1006.98
2018-11-12T04:56:47.597Z,1007
2018-11-12T04:57:13.731Z,1006.98
2018-11-12T04:57:39.888Z,1007.01
2018-11-12T04:58:06.016Z,1007
2018-11-12T04:58:32.176Z,1006.99
2018-11-12T04:58:58.307Z,1007.01
2018-11-12T04:59:24.442Z,1006.97
2018-11-12T04:59:50.582Z,1007.05
2018-11-12T05:00:16.716Z,1007.03
2018-11-12T05:00:42.913Z,1007.02
2018-11-12T05:01:09.042Z,1006.98
2018-11-12T05:01:35.196Z,1006.98
2018-11-12T05:02:01.477Z,1006.99
2018-11-12T05:02:27.464Z,1007
2018-11-12T05:02:53.621Z,1006.95
2018-11-12T05:03:19.773Z,1006.92
2018-11-12T05:03:45.903Z,1006.91
2018-11-12T05:04:12.037Z,1006.94
2018-11-12T05:04:38.198Z,1006.92
2018-11-12T05:05:04.351Z,1006.87
2018-11-12T05:05:30.513Z,1006.85
2018-11-12T05:05:56.672Z,1006.84
2018-11-12T05:06:22.810Z,1006.84
2018-11-12T05:06:48.951Z,1006.82
2018-11-12T05:07:15.141Z,1006.8
2018-11-12T05:07:41.327Z,1006.81
2018-11-12T05:08:07.388Z,1006.77
2018-11-12T05:08:33.512Z,1006.77
2018-11-12T05:08:59.671Z,1006.73
2018-11-12T05:09:25.803Z,1006.78
2018-11-12T05:09:51.927Z,1006.79
2018-11-12T05:10:18.089Z,1006.74
2018-11-12T05:10:44.247Z,1006.76
2018-11-12T05:11:10.422Z,1006.74
2018-11-12T05:11:36.550Z,1006.77
2018-11-12T05:12:02.656Z,1006.77
2018-11-12T05:12:28.780Z,1006.74
2018-11-12T05:12:54.916Z,1006.76
2018-11-12T05:13:21.070Z,1006.77
2018-11-12T05:13:47.199Z,1006.78
2018-11-12T05:14:13.376Z,1006.76
2018-11-12T05:14:39.537Z,1006.78
2018-11-12T05:15:05.696Z,1006.76
2018-11-12T05:15:31.819Z,1006.77
2018-11-12T05:15:57.959Z,1006.77
2018-11-12T05:16:24.128Z,1006.74
2018-11-12T05:16:50.342Z,1006.75
2018-11-12T05:17:16.399Z,1006.73
2018-11-12T05:17:42.560Z,1006.7